Time;durP1;ratioP1;P1;durP2;ratioP2;P2;SDS_P1;SDS_P2;PMS_P1;PMS_P2;Temp;Humidity;BMP_temperature;BMP_pressure;BME280_temperature;BME280_humidity;BME280_pressure;Samples;Min_cycle;Max_cycle;Signal;HPM_P1;HPM_P2
2021/05/31 00:01:29;;;;;;;10.75;5.47;;;;;;;;;;5015696;28;20046;-58
2021/05/31 00:03:56;;;;;;;16.17;5.65;;;;;;;;;;5014763;28;20077;-58
2021/05/31 00:06:22;;;;;;;11.23;5.40;;;;;;;;;;5014545;28;20112;-58
2021/05/31 00:08:48;;;;;;;8.38;4.38;;;;;;;;;;5014383;28;20045;-58
2021/05/31 00:11:17;;;;;;;10.93;5.03;;;;;;;;;;4999227;28;20072;-58
2021/05/31 00:13:44;;;;;;;13.23;6.00;;;;;;;;;;5011029;28;20073;-58
2021/05/31 00:16:10;;;;;;;12.63;6.18;;;;;;;;;;5014975;28;20049;-58
2021/05/31 00:18:36;;;;;;;13.48;5.47;;;;;;;;;;5015036;28;20468;-58
2021/05/31 00:21:03;;;;;;;13.45;4.88;;;;;;;;;;5014857;28;20065;-58
2021/05/31 00:23:29;;;;;;;9.10;4.55;;;;;;;;;;5014821;28;20042;-58
2021/05/31 00:25:56;;;;;;;12.90;4.75;;;;;;;;;;5014831;28;20057;-58
2021/05/31 00:28:22;;;;;;;11.60;5.20;;;;;;;;;;5015231;28;20113;-58
2021/05/31 00:30:48;;;;;;;8.75;5.15;;;;;;;;;;5015166;28;20077;-58
2021/05/31 00:33:15;;;;;;;10.35;5.10;;;;;;;;;;5015105;28;20052;-58
2021/05/31 00:35:41;;;;;;;10.15;5.68;;;;;;;;;;5014743;28;20038;-58
2021/05/31 00:38:07;;;;;;;13.32;4.93;;;;;;;;;;5014793;28;20100;-58
2021/05/31 00:40:34;;;;;;;11.35;5.53;;;;;;;;;;5015301;28;20519;-58
2021/05/31 00:43:00;;;;;;;11.93;5.95;;;;;;;;;;5014236;28;20454;-58
2021/05/31 00:45:28;;;;;;;9.05;5.15;;;;;;;;;;5013985;28;20626;-58
2021/05/31 00:47:55;;;;;;;10.00;5.07;;;;;;;;;;5014501;28;20121;-58
2021/05/31 00:50:22;;;;;;;11.45;5.05;;;;;;;;;;5014377;28;20108;-58
2021/05/31 00:52:48;;;;;;;10.95;5.53;;;;;;;;;;5014756;28;20491;-58
2021/05/31 00:55:14;;;;;;;7.95;4.40;;;;;;;;;;5014275;28;20124;-58
2021/05/31 00:57:41;;;;;;;7.72;4.38;;;;;;;;;;5014084;28;20054;-58
2021/05/31 01:00:08;;;;;;;8.90;4.30;;;;;;;;;;5014381;28;20127;-58
2021/05/31 01:02:35;;;;;;;12.75;5.40;;;;;;;;;;5012345;28;20038;-58
2021/05/31 01:05:02;;;;;;;7.55;4.38;;;;;;;;;;5013995;28;20053;-58
2021/05/31 01:07:36;;;;;;;8.52;5.05;;;;;;;;;;5010363;28;20057;-58
2021/05/31 01:10:31;;;;;;;8.80;4.57;;;;;;;;;;5012850;28;20122;-58
2021/05/31 01:13:01;;;;;;;6.97;4.22;;;;;;;;;;4987506;28;20138;-58
2021/05/31 01:15:32;;;;;;;8.15;4.25;;;;;;;;;;4973018;28;20464;-58
2021/05/31 01:18:18;;;;;;;9.98;4.57;;;;;;;;;;4978188;28;20085;-58
2021/05/31 01:21:03;;;;;;;13.02;5.53;;;;;;;;;;4988663;28;20601;-58
2021/05/31 01:23:34;;;;;;;8.60;5.03;;;;;;;;;;4990861;28;20421;-58
2021/05/31 01:26:14;;;;;;;8.80;4.45;;;;;;;;;;4990194;28;20125;-58
2021/05/31 01:28:43;;;;;;;7.70;4.60;;;;;;;;;;4992755;28;20137;-58
2021/05/31 01:31:09;;;;;;;10.13;5.00;;;;;;;;;;4972581;28;20109;-58
2021/05/31 01:33:36;;;;;;;9.43;4.53;;;;;;;;;;4972853;28;20536;-58
2021/05/31 01:36:03;;;;;;;10.52;5.40;;;;;;;;;;4978541;28;20178;-58
2021/05/31 01:38:31;;;;;;;13.60;4.97;;;;;;;;;;4990596;28;20046;-58
2021/05/31 01:40:57;;;;;;;9.02;4.25;;;;;;;;;;4989758;28;20052;-58
2021/05/31 01:43:24;;;;;;;9.68;5.20;;;;;;;;;;4988364;28;20471;-58
2021/05/31 01:45:51;;;;;;;9.32;5.15;;;;;;;;;;4987688;28;20080;-57
2021/05/31 01:48:17;;;;;;;10.73;5.10;;;;;;;;;;4987457;28;20164;-58
2021/05/31 01:50:44;;;;;;;11.15;5.45;;;;;;;;;;5001183;28;20096;-57
2021/05/31 01:53:11;;;;;;;12.13;5.65;;;;;;;;;;5013420;28;20065;-58
2021/05/31 01:55:39;;;;;;;15.05;6.65;;;;;;;;;;5013081;28;20514;-58
2021/05/31 01:58:05;;;;;;;15.95;7.30;;;;;;;;;;5013044;28;20076;-58
2021/05/31 02:00:33;;;;;;;12.98;6.15;;;;;;;;;;5013063;28;20436;-57
2021/05/31 02:02:59;;;;;;;13.38;6.00;;;;;;;;;;5013271;28;20088;-58
2021/05/31 02:05:25;;;;;;;11.45;5.78;;;;;;;;;;5013247;28;20042;-58
2021/05/31 02:07:52;;;;;;;9.77;5.03;;;;;;;;;;5013081;28;20050;-58
2021/05/31 02:10:18;;;;;;;8.45;4.88;;;;;;;;;;5012445;28;20496;-58
2021/05/31 02:12:45;;;;;;;9.32;4.50;;;;;;;;;;5011702;28;20050;-58
2021/05/31 02:15:14;;;;;;;14.93;5.07;;;;;;;;;;5013182;28;20058;-58
2021/05/31 02:18:13;;;;;;;11.15;5.70;;;;;;;;;;5011975;28;20048;-58
2021/05/31 02:20:40;;;;;;;7.15;4.13;;;;;;;;;;4949519;29;20079;-57
2021/05/31 02:23:10;;;;;;;9.32;5.10;;;;;;;;;;4951592;29;20067;-57
2021/05/31 02:25:37;;;;;;;17.23;4.97;;;;;;;;;;4949429;29;20089;-58
2021/05/31 02:28:05;;;;;;;8.18;4.50;;;;;;;;;;4929100;29;20078;-58
2021/05/31 02:30:32;;;;;;;10.85;6.07;;;;;;;;;;4942769;29;20115;-58
2021/05/31 02:33:02;;;;;;;12.35;6.05;;;;;;;;;;4947343;28;20035;-58
2021/05/31 02:35:29;;;;;;;16.70;6.80;;;;;;;;;;4950922;29;20122;-58
2021/05/31 02:37:57;;;;;;;13.55;5.85;;;;;;;;;;4949571;29;20106;-58
2021/05/31 02:40:24;;;;;;;12.75;6.13;;;;;;;;;;4948414;29;20115;-58
2021/05/31 02:42:57;;;;;;;11.02;5.43;;;;;;;;;;4947813;29;20070;-58
2021/05/31 02:45:25;;;;;;;12.07;6.00;;;;;;;;;;4948006;29;20051;-58
2021/05/31 02:47:52;;;;;;;12.23;5.70;;;;;;;;;;4935862;29;20135;-58
2021/05/31 02:50:18;;;;;;;10.40;6.25;;;;;;;;;;4937424;29;20090;-58
2021/05/31 02:52:44;;;;;;;11.77;5.35;;;;;;;;;;4939204;28;20059;-58
2021/05/31 02:55:16;;;;;;;9.13;5.65;;;;;;;;;;4953864;28;20150;-58
2021/05/31 02:57:43;;;;;;;10.48;5.03;;;;;;;;;;5012537;28;20054;-58
2021/05/31 03:00:10;;;;;;;11.15;5.93;;;;;;;;;;5012352;28;20042;-58
2021/05/31 03:02:36;;;;;;;11.32;6.07;;;;;;;;;;5012193;28;20038;-57
2021/05/31 03:05:03;;;;;;;16.15;6.10;;;;;;;;;;5026399;28;20065;-58
2021/05/31 03:07:30;;;;;;;12.70;6.60;;;;;;;;;;5011677;28;20049;-58
2021/05/31 03:09:56;;;;;;;12.27;6.25;;;;;;;;;;5012277;28;20108;-58
2021/05/31 03:12:23;;;;;;;11.60;5.70;;;;;;;;;;5012340;28;20069;-58
2021/05/31 03:14:51;;;;;;;10.77;5.50;;;;;;;;;;5011807;28;20046;-57
2021/05/31 03:17:18;;;;;;;11.98;5.90;;;;;;;;;;4996636;28;20054;-58
2021/05/31 03:19:44;;;;;;;10.82;5.72;;;;;;;;;;5012440;28;20080;-58
2021/05/31 03:22:10;;;;;;;10.07;5.75;;;;;;;;;;5011326;28;20046;-57
2021/05/31 03:24:37;;;;;;;13.70;6.05;;;;;;;;;;5011738;28;20444;-58
2021/05/31 03:27:04;;;;;;;11.35;5.60;;;;;;;;;;5011934;28;20480;-58
2021/05/31 03:29:30;;;;;;;11.98;5.82;;;;;;;;;;5011389;28;20049;-58
2021/05/31 03:31:57;;;;;;;14.27;5.43;;;;;;;;;;5011984;28;20156;-58
2021/05/31 03:34:24;;;;;;;10.30;5.65;;;;;;;;;;5012271;28;20084;-58
2021/05/31 03:36:50;;;;;;;9.82;5.30;;;;;;;;;;5010522;28;20124;-58
2021/05/31 03:39:16;;;;;;;8.98;5.38;;;;;;;;;;5012049;28;20054;-58
2021/05/31 03:41:42;;;;;;;9.95;5.25;;;;;;;;;;5011956;28;20081;-58
2021/05/31 03:44:09;;;;;;;11.45;6.18;;;;;;;;;;5014025;28;20103;-58
2021/05/31 03:46:36;;;;;;;15.35;5.68;;;;;;;;;;5016190;28;20108;-58
2021/05/31 03:49:03;;;;;;;11.05;5.88;;;;;;;;;;5015504;28;20080;-57
2021/05/31 03:51:29;;;;;;;11.55;6.25;;;;;;;;;;5015339;28;20455;-58
2021/05/31 03:53:56;;;;;;;14.48;7.07;;;;;;;;;;5015108;28;20141;-58
2021/05/31 03:56:22;;;;;;;11.23;5.97;;;;;;;;;;5014944;28;20507;-58
2021/05/31 03:58:49;;;;;;;13.27;6.32;;;;;;;;;;5015661;28;20455;-58
2021/05/31 04:01:16;;;;;;;10.90;6.13;;;;;;;;;;5014587;28;20054;-58
2021/05/31 04:03:43;;;;;;;13.55;6.28;;;;;;;;;;5015397;28;20050;-58
2021/05/31 04:06:30;;;;;;;10.80;5.75;;;;;;;;;;5015031;28;20045;-58
2021/05/31 04:11:49;;;;;;;10.32;5.25;;;;;;;;;;5007385;28;20049;-58
2021/05/31 04:14:17;;;;;;;8.63;5.28;;;;;;;;;;4992451;28;20066;-58
2021/05/31 04:16:44;;;;;;;7.47;3.85;;;;;;;;;;4984791;28;20058;-58
2021/05/31 04:19:11;;;;;;;9.43;4.22;;;;;;;;;;4986390;28;20133;-58
2021/05/31 04:21:38;;;;;;;8.65;4.55;;;;;;;;;;4989495;28;20061;-58
2021/05/31 04:24:05;;;;;;;7.35;4.47;;;;;;;;;;4985465;28;20077;-58
2021/05/31 04:26:35;;;;;;;8.07;4.20;;;;;;;;;;4987586;28;20053;-58
2021/05/31 04:29:02;;;;;;;6.18;3.72;;;;;;;;;;4972529;28;20116;-59
2021/05/31 04:31:28;;;;;;;10.00;4.45;;;;;;;;;;4987623;28;20042;-58
2021/05/31 04:33:54;;;;;;;7.95;3.72;;;;;;;;;;4988792;28;20049;-59
2021/05/31 04:36:21;;;;;;;5.47;3.13;;;;;;;;;;4991773;28;20096;-59
2021/05/31 04:38:47;;;;;;;6.28;3.53;;;;;;;;;;4990219;28;20043;-59
2021/05/31 04:41:13;;;;;;;8.75;3.33;;;;;;;;;;4969268;28;20051;-58
2021/05/31 04:43:40;;;;;;;5.57;3.10;;;;;;;;;;4983676;28;20051;-58
2021/05/31 04:46:06;;;;;;;10.73;2.92;;;;;;;;;;4972311;28;20069;-58
2021/05/31 04:48:32;;;;;;;5.68;3.05;;;;;;;;;;4992977;28;20082;-59
2021/05/31 04:51:01;;;;;;;4.50;2.70;;;;;;;;;;5004397;28;20705;-58
2021/05/31 04:53:28;;;;;;;7.65;3.42;;;;;;;;;;5010563;28;20138;-59
2021/05/31 04:55:55;;;;;;;5.10;3.08;;;;;;;;;;5011764;28;20129;-58
2021/05/31 04:58:22;;;;;;;4.93;3.03;;;;;;;;;;5011351;28;20053;-58
2021/05/31 05:00:49;;;;;;;9.63;3.60;;;;;;;;;;5011087;28;20046;-59
2021/05/31 05:03:15;;;;;;;8.25;3.33;;;;;;;;;;5010145;28;20081;-59
2021/05/31 05:05:41;;;;;;;5.32;2.97;;;;;;;;;;5010246;28;20073;-58
2021/05/31 05:08:07;;;;;;;4.70;2.92;;;;;;;;;;5011781;28;20040;-59
2021/05/31 05:10:34;;;;;;;5.53;2.42;;;;;;;;;;5012684;28;20127;-59
2021/05/31 05:13:00;;;;;;;4.05;2.47;;;;;;;;;;5007567;28;20353;-58
2021/05/31 05:15:27;;;;;;;4.75;2.72;;;;;;;;;;5003996;28;20045;-58
2021/05/31 05:17:54;;;;;;;4.05;2.72;;;;;;;;;;5009926;28;20048;-59
2021/05/31 05:20:22;;;;;;;11.65;2.72;;;;;;;;;;5010269;28;20066;-59
2021/05/31 05:22:48;;;;;;;4.15;2.42;;;;;;;;;;5013104;28;20129;-59
2021/05/31 05:25:15;;;;;;;4.93;2.75;;;;;;;;;;5011817;28;20052;-59
2021/05/31 05:27:42;;;;;;;4.72;2.80;;;;;;;;;;5009214;28;20061;-59
2021/05/31 05:30:10;;;;;;;6.25;3.28;;;;;;;;;;5010066;28;20046;-59
2021/05/31 05:32:36;;;;;;;6.55;3.58;;;;;;;;;;5006825;28;20642;-59
2021/05/31 05:35:16;;;;;;;7.55;3.13;;;;;;;;;;5009751;28;20084;-59
2021/05/31 05:37:57;;;;;;;5.53;2.92;;;;;;;;;;5008388;28;20041;-59
2021/05/31 05:48:39;;;;;;;5.43;2.95;;;;;;;;;;5012366;28;20128;-59
2021/05/31 05:51:06;;;;;;;5.95;2.72;;;;;;;;;;5012646;28;20077;-59
2021/05/31 05:53:41;;;;;;;6.55;3.22;;;;;;;;;;5013055;28;20124;-59
2021/05/31 05:56:08;;;;;;;9.73;3.15;;;;;;;;;;5011381;28;20080;-59
2021/05/31 05:58:35;;;;;;;5.25;3.38;;;;;;;;;;5013316;28;20096;-59
2021/05/31 06:01:02;;;;;;;6.60;3.17;;;;;;;;;;5012753;28;20060;-59
2021/05/31 06:03:29;;;;;;;6.50;3.45;;;;;;;;;;5012478;28;20054;-59
2021/05/31 06:05:55;;;;;;;7.10;3.70;;;;;;;;;;5012242;28;20092;-59
2021/05/31 06:08:22;;;;;;;8.13;2.97;;;;;;;;;;5011302;28;20045;-59
2021/05/31 06:10:48;;;;;;;7.93;3.17;;;;;;;;;;5012742;28;20057;-59
2021/05/31 06:13:14;;;;;;;5.00;2.92;;;;;;;;;;5012304;28;20393;-59
2021/05/31 06:15:41;;;;;;;5.00;2.65;;;;;;;;;;5009033;28;20046;-59
2021/05/31 06:18:07;;;;;;;7.90;2.85;;;;;;;;;;5007642;28;20066;-59
2021/05/31 06:20:35;;;;;;;6.80;2.97;;;;;;;;;;5009067;28;20038;-59
2021/05/31 06:23:02;;;;;;;8.15;2.75;;;;;;;;;;5010291;28;20050;-59
2021/05/31 06:25:28;;;;;;;4.80;2.97;;;;;;;;;;5012508;28;20061;-59
2021/05/31 06:27:54;;;;;;;8.65;3.45;;;;;;;;;;5009768;28;20050;-59
2021/05/31 06:30:22;;;;;;;5.20;2.70;;;;;;;;;;5010541;28;20050;-59
2021/05/31 06:32:48;;;;;;;7.78;2.90;;;;;;;;;;5010607;28;20069;-59
2021/05/31 06:35:15;;;;;;;7.18;2.78;;;;;;;;;;4994997;28;20077;-59
2021/05/31 06:37:41;;;;;;;5.45;2.35;;;;;;;;;;5012567;28;20104;-59
2021/05/31 06:40:12;;;;;;;5.57;2.83;;;;;;;;;;5009888;28;20038;-59
2021/05/31 06:42:39;;;;;;;5.40;2.75;;;;;;;;;;5010524;28;20042;-59
2021/05/31 06:45:08;;;;;;;4.10;2.63;;;;;;;;;;5010302;28;20504;-59
2021/05/31 06:47:35;;;;;;;7.40;2.60;;;;;;;;;;5010086;28;20056;-59
2021/05/31 06:50:02;;;;;;;4.95;2.33;;;;;;;;;;5009727;28;20077;-59
2021/05/31 06:52:29;;;;;;;6.50;3.60;;;;;;;;;;5011508;28;20046;-59
2021/05/31 06:54:55;;;;;;;8.82;3.05;;;;;;;;;;5003132;28;20088;-59
2021/05/31 06:57:21;;;;;;;4.45;2.35;;;;;;;;;;5012229;28;20060;-59
2021/05/31 06:59:47;;;;;;;5.30;2.20;;;;;;;;;;5010012;28;20042;-60
2021/05/31 07:02:14;;;;;;;3.85;2.22;;;;;;;;;;5011097;28;20042;-59
2021/05/31 07:04:40;;;;;;;5.03;2.45;;;;;;;;;;5011710;28;20488;-59
2021/05/31 07:07:07;;;;;;;8.50;3.00;;;;;;;;;;5010911;28;20049;-59
2021/05/31 07:09:33;;;;;;;4.95;3.00;;;;;;;;;;5001845;28;20101;-59
2021/05/31 07:11:59;;;;;;;3.60;2.30;;;;;;;;;;4995238;28;20129;-59
2021/05/31 07:14:33;;;;;;;4.38;2.20;;;;;;;;;;4997361;28;20050;-58
2021/05/31 07:17:01;;;;;;;4.60;2.67;;;;;;;;;;5007031;28;20077;-59
2021/05/31 07:19:28;;;;;;;5.97;2.35;;;;;;;;;;4996889;28;20042;-58
2021/05/31 07:21:54;;;;;;;4.00;2.33;;;;;;;;;;4998878;28;20446;-57
2021/05/31 07:24:21;;;;;;;4.90;2.10;;;;;;;;;;5007146;28;20065;-57
2021/05/31 07:26:47;;;;;;;5.53;2.53;;;;;;;;;;5012675;28;20103;-57
2021/05/31 07:29:14;;;;;;;10.98;2.40;;;;;;;;;;5009529;28;20049;-58
2021/05/31 07:31:40;;;;;;;8.10;2.35;;;;;;;;;;5010018;28;20128;-59
2021/05/31 07:34:06;;;;;;;5.20;2.30;;;;;;;;;;5008580;28;20100;-57
2021/05/31 07:36:33;;;;;;;3.35;1.63;;;;;;;;;;5006144;28;20491;-58
2021/05/31 07:38:59;;;;;;;7.30;1.90;;;;;;;;;;5006651;28;20051;-57
2021/05/31 07:41:25;;;;;;;2.83;1.50;;;;;;;;;;5009950;28;20050;-58
2021/05/31 07:43:51;;;;;;;2.72;1.60;;;;;;;;;;5019487;28;20142;-58
2021/05/31 07:46:18;;;;;;;4.18;1.33;;;;;;;;;;5003247;28;20082;-58
2021/05/31 07:48:45;;;;;;;2.50;1.60;;;;;;;;;;5002660;28;20407;-58
2021/05/31 07:51:16;;;;;;;4.07;1.70;;;;;;;;;;5007779;28;20493;-59
2021/05/31 07:53:43;;;;;;;2.92;1.50;;;;;;;;;;5005436;28;20053;-59
2021/05/31 07:56:10;;;;;;;2.42;1.58;;;;;;;;;;5010918;28;20062;-59
2021/05/31 07:58:36;;;;;;;4.85;1.40;;;;;;;;;;5000819;28;20042;-59
2021/05/31 08:01:03;;;;;;;8.48;1.80;;;;;;;;;;5003849;28;20054;-58
2021/05/31 08:03:30;;;;;;;6.35;1.42;;;;;;;;;;5002421;28;20504;-58
2021/05/31 08:05:58;;;;;;;3.05;1.30;;;;;;;;;;5009197;28;20105;-58
2021/05/31 08:08:25;;;;;;;4.07;1.98;;;;;;;;;;5005669;28;20050;-57
2021/05/31 08:10:51;;;;;;;2.60;1.30;;;;;;;;;;5010499;28;20049;-57
2021/05/31 08:13:18;;;;;;;9.30;1.85;;;;;;;;;;5009376;28;20052;-59
2021/05/31 08:15:44;;;;;;;3.65;1.98;;;;;;;;;;5002245;28;20508;-59
2021/05/31 08:18:11;;;;;;;12.82;1.60;;;;;;;;;;5008453;28;20386;-59
2021/05/31 08:20:38;;;;;;;5.10;1.83;;;;;;;;;;5010930;28;20111;-58
2021/05/31 08:23:05;;;;;;;2.67;1.30;;;;;;;;;;5008881;28;20048;-58
2021/05/31 08:25:32;;;;;;;4.70;1.30;;;;;;;;;;5008656;28;20443;-59
2021/05/31 08:27:58;;;;;;;3.30;1.42;;;;;;;;;;5000124;28;20046;-58
2021/05/31 08:30:25;;;;;;;2.95;1.10;;;;;;;;;;4999585;28;20125;-59
2021/05/31 08:32:51;;;;;;;3.10;1.23;;;;;;;;;;5011603;28;20038;-59
2021/05/31 08:35:17;;;;;;;2.30;1.30;;;;;;;;;;5008021;28;20050;-59
2021/05/31 08:37:44;;;;;;;1.70;1.20;;;;;;;;;;5004017;28;20463;-59
2021/05/31 08:40:10;;;;;;;3.55;1.40;;;;;;;;;;5011248;28;20092;-59
2021/05/31 08:42:38;;;;;;;3.53;1.40;;;;;;;;;;5003368;28;20169;-58
2021/05/31 08:45:06;;;;;;;7.43;1.25;;;;;;;;;;4998700;28;20093;-59
2021/05/31 08:47:32;;;;;;;2.53;1.45;;;;;;;;;;4996600;28;20088;-59
2021/05/31 08:49:59;;;;;;;2.88;1.42;;;;;;;;;;5006200;28;20151;-59
2021/05/31 08:52:25;;;;;;;2.70;1.52;;;;;;;;;;4998591;28;20124;-58
2021/05/31 08:54:51;;;;;;;1.70;1.13;;;;;;;;;;5000599;28;20069;-59
2021/05/31 08:57:20;;;;;;;5.55;1.67;;;;;;;;;;5002640;28;20058;-59
2021/05/31 08:59:46;;;;;;;2.30;1.23;;;;;;;;;;5010865;28;20037;-59
2021/05/31 09:02:13;;;;;;;2.35;1.25;;;;;;;;;;5010630;28;20129;-59
2021/05/31 09:04:46;;;;;;;2.92;1.20;;;;;;;;;;5011754;28;20050;-60
2021/05/31 09:07:12;;;;;;;1.73;1.25;;;;;;;;;;5010916;28;20108;-59
2021/05/31 09:09:42;;;;;;;4.50;1.38;;;;;;;;;;5009737;28;20054;-59
2021/05/31 09:12:10;;;;;;;58.92;11.60;;;;;;;;;;5009768;28;20057;-60
2021/05/31 09:14:37;;;;;;;138.20;23.55;;;;;;;;;;5009799;28;20058;-60
2021/05/31 09:17:03;;;;;;;23.02;3.30;;;;;;;;;;5011905;28;20062;-60
2021/05/31 09:19:30;;;;;;;21.98;3.65;;;;;;;;;;5010875;28;20495;-59
2021/05/31 09:21:57;;;;;;;3.75;1.67;;;;;;;;;;5009314;28;20049;-60
2021/05/31 09:24:24;;;;;;;3.38;1.20;;;;;;;;;;5008619;28;20046;-59
2021/05/31 09:26:56;;;;;;;9.40;1.95;;;;;;;;;;5008504;28;20502;-59
2021/05/31 09:29:22;;;;;;;8.60;2.03;;;;;;;;;;5009588;28;20786;-60
2021/05/31 09:31:58;;;;;;;4.68;1.40;;;;;;;;;;5011474;28;20045;-58
2021/05/31 09:34:25;;;;;;;2.78;1.30;;;;;;;;;;5005396;28;20057;-60
2021/05/31 09:36:53;;;;;;;2.67;1.27;;;;;;;;;;5006579;28;20048;-59
2021/05/31 09:39:21;;;;;;;2.10;1.20;;;;;;;;;;5009880;28;20049;-60
2021/05/31 09:41:48;;;;;;;2.05;1.30;;;;;;;;;;5010135;28;20038;-60
2021/05/31 09:44:14;;;;;;;5.38;1.73;;;;;;;;;;5009271;28;20058;-60
2021/05/31 09:46:41;;;;;;;3.63;1.23;;;;;;;;;;5012293;28;20492;-60
2021/05/31 09:49:11;;;;;;;5.13;1.65;;;;;;;;;;5008825;28;20050;-60
2021/05/31 09:51:49;;;;;;;10.35;1.40;;;;;;;;;;5009118;28;20058;-60
2021/05/31 09:54:25;;;;;;;5.53;1.85;;;;;;;;;;5008834;28;20054;-60
2021/05/31 09:56:52;;;;;;;2.22;1.15;;;;;;;;;;5008424;28;20050;-60
2021/05/31 09:59:19;;;;;;;5.50;1.85;;;;;;;;;;5008996;28;20054;-60
2021/05/31 10:01:45;;;;;;;2.28;1.23;;;;;;;;;;5012409;28;20041;-60
2021/05/31 10:04:23;;;;;;;3.70;1.20;;;;;;;;;;5009533;28;20042;-60
2021/05/31 10:09:39;;;;;;;4.00;1.30;;;;;;;;;;4987989;28;20050;-59
2021/05/31 10:12:05;;;;;;;7.45;1.80;;;;;;;;;;4987145;28;20074;-59
2021/05/31 10:14:32;;;;;;;2.65;1.35;;;;;;;;;;4988274;28;20500;-59
2021/05/31 10:16:59;;;;;;;2.42;1.30;;;;;;;;;;4968209;28;20121;-59
2021/05/31 10:19:26;;;;;;;5.47;1.50;;;;;;;;;;4989269;28;20615;-59
2021/05/31 10:21:52;;;;;;;2.22;1.23;;;;;;;;;;4984840;28;20039;-60
2021/05/31 10:24:18;;;;;;;3.30;1.20;;;;;;;;;;4988194;28;20144;-60
2021/05/31 10:26:45;;;;;;;1.60;1.20;;;;;;;;;;4987281;28;20173;-59
2021/05/31 10:29:12;;;;;;;2.03;1.25;;;;;;;;;;4988212;28;20050;-59
2021/05/31 10:31:45;;;;;;;2.47;1.13;;;;;;;;;;4990014;28;20046;-60
2021/05/31 10:34:19;;;;;;;2.53;1.35;;;;;;;;;;4987082;28;20064;-60
2021/05/31 10:36:49;;;;;;;4.10;1.50;;;;;;;;;;4986791;28;20046;-60
2021/05/31 10:39:22;;;;;;;2.85;1.00;;;;;;;;;;4982302;28;20516;-61
2021/05/31 10:41:49;;;;;;;2.33;1.42;;;;;;;;;;4978095;28;20238;-59
2021/05/31 10:44:19;;;;;;;4.40;1.52;;;;;;;;;;4988834;28;20116;-60
2021/05/31 10:46:46;;;;;;;2.10;1.50;;;;;;;;;;4995269;28;20050;-60
2021/05/31 10:49:16;;;;;;;4.97;1.52;;;;;;;;;;5003270;28;20490;-60
2021/05/31 10:51:43;;;;;;;2.13;1.30;;;;;;;;;;5003526;28;20047;-60
2021/05/31 10:54:10;;;;;;;5.93;2.33;;;;;;;;;;5003092;28;20046;-60
2021/05/31 10:56:36;;;;;;;4.60;1.75;;;;;;;;;;5008512;28;20058;-60
2021/05/31 10:59:03;;;;;;;5.75;1.60;;;;;;;;;;4993951;28;20046;-61
2021/05/31 11:01:32;;;;;;;5.15;1.58;;;;;;;;;;4995528;28;20078;-61
2021/05/31 11:04:02;;;;;;;4.05;1.30;;;;;;;;;;5005592;28;20046;-60
2021/05/31 11:06:49;;;;;;;2.60;1.40;;;;;;;;;;5008953;28;20123;-60
2021/05/31 11:09:15;;;;;;;4.50;1.60;;;;;;;;;;5008976;28;20092;-59
2021/05/31 11:11:43;;;;;;;2.80;1.35;;;;;;;;;;5008119;28;20042;-61
2021/05/31 11:14:10;;;;;;;2.40;1.35;;;;;;;;;;5009820;28;20072;-59
2021/05/31 11:16:37;;;;;;;3.28;1.65;;;;;;;;;;4996313;28;20104;-61
2021/05/31 11:19:06;;;;;;;2.63;1.13;;;;;;;;;;4996718;28;20046;-58
2021/05/31 11:21:37;;;;;;;2.20;1.48;;;;;;;;;;5001010;28;20054;-59
2021/05/31 11:24:06;;;;;;;3.47;1.60;;;;;;;;;;4998706;28;20073;-59
2021/05/31 11:26:34;;;;;;;3.83;1.40;;;;;;;;;;5008126;28;20050;-61
2021/05/31 11:29:00;;;;;;;3.00;1.40;;;;;;;;;;5010056;28;20064;-59
2021/05/31 11:31:27;;;;;;;1.95;1.35;;;;;;;;;;5009517;28;20054;-61
2021/05/31 11:33:54;;;;;;;3.72;1.35;;;;;;;;;;5007873;28;20046;-59
2021/05/31 11:36:27;;;;;;;6.03;1.15;;;;;;;;;;5008589;28;20042;-61
2021/05/31 11:38:54;;;;;;;2.15;1.30;;;;;;;;;;5008858;28;20069;-60
2021/05/31 11:41:31;;;;;;;1.80;1.13;;;;;;;;;;5008578;28;20504;-61
2021/05/31 11:43:57;;;;;;;2.00;1.23;;;;;;;;;;5010456;28;20080;-60
2021/05/31 11:46:23;;;;;;;2.92;1.17;;;;;;;;;;5009138;28;20054;-61
2021/05/31 11:48:50;;;;;;;2.65;1.15;;;;;;;;;;5007332;28;20092;-60
2021/05/31 11:51:16;;;;;;;3.72;1.60;;;;;;;;;;5009624;28;20088;-60
2021/05/31 11:53:48;;;;;;;5.03;1.45;;;;;;;;;;5007873;28;20042;-61
2021/05/31 11:56:14;;;;;;;4.28;1.30;;;;;;;;;;5009067;28;20096;-61
2021/05/31 11:58:41;;;;;;;1.75;1.00;;;;;;;;;;5011309;28;20488;-60
2021/05/31 12:01:10;;;;;;;2.95;1.20;;;;;;;;;;5004921;28;20073;-61
2021/05/31 12:03:37;;;;;;;4.38;1.35;;;;;;;;;;5007875;28;20058;-60
2021/05/31 12:06:11;;;;;;;2.90;1.35;;;;;;;;;;5010606;28;20049;-61
2021/05/31 12:08:37;;;;;;;2.03;1.30;;;;;;;;;;5006127;28;20102;-58
2021/05/31 12:11:04;;;;;;;4.68;1.50;;;;;;;;;;5012423;28;20304;-59
2021/05/31 12:13:32;;;;;;;3.28;1.33;;;;;;;;;;5012553;28;20507;-58
2021/05/31 12:15:58;;;;;;;2.53;1.35;;;;;;;;;;5011053;28;20054;-58
2021/05/31 12:18:27;;;;;;;3.60;1.40;;;;;;;;;;5009637;28;20077;-59
2021/05/31 12:21:01;;;;;;;5.82;1.20;;;;;;;;;;5011333;28;20074;-60
2021/05/31 12:23:27;;;;;;;3.28;1.33;;;;;;;;;;5010287;28;20049;-60
2021/05/31 12:25:58;;;;;;;3.38;1.10;;;;;;;;;;5011963;28;20038;-60
2021/05/31 12:28:29;;;;;;;3.85;1.40;;;;;;;;;;5013509;28;20077;-60
2021/05/31 12:30:55;;;;;;;3.28;1.38;;;;;;;;;;5009634;28;20057;-59
2021/05/31 12:33:22;;;;;;;8.75;1.70;;;;;;;;;;5010227;28;20057;-60
2021/05/31 12:35:49;;;;;;;2.17;1.20;;;;;;;;;;5009401;28;20554;-59
2021/05/31 12:38:17;;;;;;;3.03;1.17;;;;;;;;;;5010817;28;20049;-59
2021/05/31 12:40:44;;;;;;;2.35;1.20;;;;;;;;;;5014002;28;20049;-59
2021/05/31 12:43:11;;;;;;;2.55;1.40;;;;;;;;;;5011106;28;20076;-60
2021/05/31 12:45:43;;;;;;;3.45;1.20;;;;;;;;;;5010966;28;20050;-60
2021/05/31 12:48:16;;;;;;;2.13;1.30;;;;;;;;;;5010474;28;20444;-61
2021/05/31 12:50:43;;;;;;;4.40;1.53;;;;;;;;;;5010867;28;20536;-59
2021/05/31 12:53:11;;;;;;;3.28;1.33;;;;;;;;;;5012011;28;20308;-60
2021/05/31 12:55:38;;;;;;;2.17;1.60;;;;;;;;;;5014346;28;20045;-60
2021/05/31 12:58:12;;;;;;;5.82;2.60;;;;;;;;;;5010396;28;20066;-59
2021/05/31 13:00:39;;;;;;;3.77;1.63;;;;;;;;;;5010661;28;20100;-59
2021/05/31 13:03:05;;;;;;;2.90;1.58;;;;;;;;;;5010410;28;20045;-62
2021/05/31 13:05:35;;;;;;;2.60;1.30;;;;;;;;;;5012309;28;20045;-60
2021/05/31 13:08:03;;;;;;;2.80;1.42;;;;;;;;;;5012587;28;20046;-59
2021/05/31 13:10:33;;;;;;;3.67;1.42;;;;;;;;;;5012114;28;20069;-60
2021/05/31 13:13:02;;;;;;;3.92;1.30;;;;;;;;;;5010282;28;20104;-60
2021/05/31 13:15:40;;;;;;;2.53;1.30;;;;;;;;;;5010103;28;20045;-60
2021/05/31 13:18:21;;;;;;;5.47;1.92;;;;;;;;;;5010078;28;20065;-60
2021/05/31 13:20:49;;;;;;;1.98;1.50;;;;;;;;;;5010343;28;20455;-58
2021/05/31 13:23:17;;;;;;;2.50;1.45;;;;;;;;;;5010989;28;20085;-59
2021/05/31 13:25:44;;;;;;;4.40;1.77;;;;;;;;;;5009029;28;20122;-60
2021/05/31 13:28:21;;;;;;;2.20;1.40;;;;;;;;;;5009568;28;20045;-59
2021/05/31 13:30:50;;;;;;;3.38;1.38;;;;;;;;;;5010216;28;20046;-59
2021/05/31 13:33:16;;;;;;;2.90;1.63;;;;;;;;;;5011065;28;20057;-58
2021/05/31 13:35:43;;;;;;;6.43;1.55;;;;;;;;;;5009742;28;20053;-59
2021/05/31 13:38:10;;;;;;;2.67;1.70;;;;;;;;;;5011476;28;20061;-58
2021/05/31 13:40:37;;;;;;;4.88;1.52;;;;;;;;;;5012575;28;20038;-59
2021/05/31 13:43:07;;;;;;;9.00;1.98;;;;;;;;;;5010667;28;20042;-61
2021/05/31 13:45:39;;;;;;;4.55;1.40;;;;;;;;;;5010192;28;20096;-61
2021/05/31 13:48:06;;;;;;;4.32;1.30;;;;;;;;;;5011381;28;20056;-61
2021/05/31 13:50:33;;;;;;;5.15;1.40;;;;;;;;;;5011097;28;20460;-60
2021/05/31 13:53:00;;;;;;;3.03;1.50;;;;;;;;;;5010926;28;20070;-60
2021/05/31 13:55:26;;;;;;;4.18;1.50;;;;;;;;;;5012314;28;20428;-59
2021/05/31 13:57:53;;;;;;;4.45;1.33;;;;;;;;;;5009629;28;20089;-60
2021/05/31 14:00:21;;;;;;;2.97;1.50;;;;;;;;;;5009975;28;20128;-59
2021/05/31 14:02:48;;;;;;;3.15;1.20;;;;;;;;;;5009887;28;20053;-61
2021/05/31 14:05:15;;;;;;;5.15;1.70;;;;;;;;;;5010256;28;20480;-61
2021/05/31 14:07:42;;;;;;;3.53;1.30;;;;;;;;;;5012487;28;20045;-61
2021/05/31 14:10:09;;;;;;;3.65;1.40;;;;;;;;;;5008963;28;20046;-60
2021/05/31 14:12:36;;;;;;;3.63;1.27;;;;;;;;;;5010180;28;20060;-61
2021/05/31 14:15:03;;;;;;;3.78;1.20;;;;;;;;;;5009033;28;20061;-60
2021/05/31 14:17:29;;;;;;;3.40;1.30;;;;;;;;;;5008928;28;20038;-59
2021/05/31 14:19:55;;;;;;;5.15;1.20;;;;;;;;;;5011422;28;20065;-59
2021/05/31 14:22:22;;;;;;;4.15;1.33;;;;;;;;;;5011856;28;20081;-59
2021/05/31 14:24:48;;;;;;;2.15;1.30;;;;;;;;;;5008939;28;20499;-59
2021/05/31 14:27:17;;;;;;;2.33;1.27;;;;;;;;;;5009069;28;20451;-60
2021/05/31 14:29:44;;;;;;;4.18;1.58;;;;;;;;;;5008837;28;20053;-59
2021/05/31 14:32:11;;;;;;;2.75;1.50;;;;;;;;;;5009815;28;20129;-60
2021/05/31 14:34:38;;;;;;;2.00;1.48;;;;;;;;;;5010625;28;20466;-59
2021/05/31 14:37:05;;;;;;;6.03;1.58;;;;;;;;;;5008250;28;20074;-59
2021/05/31 14:39:31;;;;;;;7.47;1.40;;;;;;;;;;5009282;28;20060;-59
2021/05/31 14:41:57;;;;;;;6.07;1.50;;;;;;;;;;5008896;28;20046;-58
2021/05/31 14:44:24;;;;;;;5.70;1.40;;;;;;;;;;5006681;28;20080;-58
2021/05/31 14:46:50;;;;;;;3.72;1.25;;;;;;;;;;5010134;28;20049;-57
2021/05/31 14:49:17;;;;;;;7.97;1.15;;;;;;;;;;5004261;28;20041;-58
2021/05/31 14:51:43;;;;;;;5.63;1.30;;;;;;;;;;5003812;28;20483;-57
2021/05/31 14:54:09;;;;;;;2.25;1.30;;;;;;;;;;5002116;28;20054;-57
2021/05/31 14:56:36;;;;;;;3.75;1.75;;;;;;;;;;5003402;28;20074;-58
2021/05/31 14:59:02;;;;;;;5.07;1.35;;;;;;;;;;5007535;28;20049;-57